sensor_id;sensor_type;location;lat;lon;timestamp;pressure;altitude;pressure_sealevel;temperature;humidity
70544;BME280;58097;48.364;-1.224;2022-12-04T00:00:08;99263.97;;;2.73;82.48
70544;BME280;58097;48.364;-1.224;2022-12-04T00:02:35;99264.97;;;2.72;82.52
70544;BME280;58097;48.364;-1.224;2022-12-04T00:05:02;99266.69;;;2.73;82.29
70544;BME280;58097;48.364;-1.224;2022-12-04T00:07:27;99258.63;;;2.72;82.50
70544;BME280;58097;48.364;-1.224;2022-12-04T00:09:53;99258.78;;;2.70;82.17
70544;BME280;58097;48.364;-1.224;2022-12-04T00:12:18;99259.25;;;2.75;81.98
70544;BME280;58097;48.364;-1.224;2022-12-04T00:14:43;99258.91;;;2.69;82.10
70544;BME280;58097;48.364;-1.224;2022-12-04T00:17:09;99254.56;;;2.66;82.32
70544;BME280;58097;48.364;-1.224;2022-12-04T00:19:34;99255.78;;;2.73;82.25
70544;BME280;58097;48.364;-1.224;2022-12-04T00:21:59;99251.44;;;2.71;82.28
70544;BME280;58097;48.364;-1.224;2022-12-04T00:24:25;99252.78;;;2.76;82.26
70544;BME280;58097;48.364;-1.224;2022-12-04T00:26:50;99251.66;;;2.79;82.34
70544;BME280;58097;48.364;-1.224;2022-12-04T00:29:16;99243.81;;;2.86;82.15
70544;BME280;58097;48.364;-1.224;2022-12-04T00:31:42;99245.44;;;2.88;82.22
70544;BME280;58097;48.364;-1.224;2022-12-04T00:34:07;99241.59;;;2.91;82.08
70544;BME280;58097;48.364;-1.224;2022-12-04T00:36:32;99250.25;;;2.96;82.14
70544;BME280;58097;48.364;-1.224;2022-12-04T00:38:59;99252.72;;;2.99;81.97
70544;BME280;58097;48.364;-1.224;2022-12-04T00:41:30;99241.94;;;2.97;81.82
70544;BME280;58097;48.364;-1.224;2022-12-04T00:43:55;99240.59;;;2.92;81.78
70544;BME280;58097;48.364;-1.224;2022-12-04T00:46:21;99247.41;;;2.97;81.94
70544;BME280;58097;48.364;-1.224;2022-12-04T00:48:46;99239.59;;;2.93;81.95
70544;BME280;58097;48.364;-1.224;2022-12-04T00:51:16;99239.00;;;2.89;82.10
70544;BME280;58097;48.364;-1.224;2022-12-04T00:53:42;99238.25;;;2.87;82.18
70544;BME280;58097;48.364;-1.224;2022-12-04T00:56:10;99239.09;;;2.88;82.30
70544;BME280;58097;48.364;-1.224;2022-12-04T00:58:36;99236.38;;;2.88;82.01
70544;BME280;58097;48.364;-1.224;2022-12-04T01:01:07;99234.66;;;2.87;82.37
70544;BME280;58097;48.364;-1.224;2022-12-04T01:03:33;99228.25;;;2.76;82.14
70544;BME280;58097;48.364;-1.224;2022-12-04T01:05:59;99227.72;;;2.83;82.26
70544;BME280;58097;48.364;-1.224;2022-12-04T01:08:24;99236.28;;;2.78;82.40
70544;BME280;58097;48.364;-1.224;2022-12-04T01:10:50;99224.25;;;2.80;82.19
70544;BME280;58097;48.364;-1.224;2022-12-04T01:13:15;99222.78;;;2.76;82.33
70544;BME280;58097;48.364;-1.224;2022-12-04T01:15:40;99220.84;;;2.67;82.38
70544;BME280;58097;48.364;-1.224;2022-12-04T01:18:09;99217.97;;;2.69;82.54
70544;BME280;58097;48.364;-1.224;2022-12-04T01:20:35;99219.56;;;2.71;82.52
70544;BME280;58097;48.364;-1.224;2022-12-04T01:23:01;99217.44;;;2.75;82.65
70544;BME280;58097;48.364;-1.224;2022-12-04T01:25:26;99215.59;;;2.75;82.80
70544;BME280;58097;48.364;-1.224;2022-12-04T01:27:51;99217.09;;;2.68;82.50
70544;BME280;58097;48.364;-1.224;2022-12-04T01:30:17;99214.16;;;2.60;82.72
70544;BME280;58097;48.364;-1.224;2022-12-04T01:32:42;99203.25;;;2.60;82.63
70544;BME280;58097;48.364;-1.224;2022-12-04T01:35:08;99200.53;;;2.60;82.61
70544;BME280;58097;48.364;-1.224;2022-12-04T01:37:33;99193.94;;;2.63;82.57
70544;BME280;58097;48.364;-1.224;2022-12-04T01:39:58;99195.81;;;2.62;82.43
70544;BME280;58097;48.364;-1.224;2022-12-04T01:42:24;99188.22;;;2.66;82.57
70544;BME280;58097;48.364;-1.224;2022-12-04T01:47:55;99196.53;;;2.64;82.76
70544;BME280;58097;48.364;-1.224;2022-12-04T01:50:22;99195.81;;;2.62;82.75
70544;BME280;58097;48.364;-1.224;2022-12-04T01:52:47;99199.28;;;2.64;82.94
70544;BME280;58097;48.364;-1.224;2022-12-04T01:55:13;99183.91;;;2.63;82.82
70544;BME280;58097;48.364;-1.224;2022-12-04T01:57:38;99195.69;;;2.64;82.90
70544;BME280;58097;48.364;-1.224;2022-12-04T02:00:10;99202.47;;;2.58;82.86
70544;BME280;58097;48.364;-1.224;2022-12-04T02:02:41;99195.44;;;2.56;82.83
70544;BME280;58097;48.364;-1.224;2022-12-04T02:05:14;99194.69;;;2.65;82.76
70544;BME280;58097;48.364;-1.224;2022-12-04T02:07:40;99191.56;;;2.69;82.65
70544;BME280;58097;48.364;-1.224;2022-12-04T02:10:08;99187.09;;;2.68;82.93
70544;BME280;58097;48.364;-1.224;2022-12-04T02:32:04;99169.06;;;2.45;83.50
70544;BME280;58097;48.364;-1.224;2022-12-04T02:35:04;99168.81;;;2.48;83.30
70544;BME280;58097;48.364;-1.224;2022-12-04T02:37:34;99175.84;;;2.51;83.33
70544;BME280;58097;48.364;-1.224;2022-12-04T02:45:29;99176.72;;;2.51;83.14
70544;BME280;58097;48.364;-1.224;2022-12-04T02:47:58;99171.41;;;2.49;83.50
70544;BME280;58097;48.364;-1.224;2022-12-04T02:50:25;99187.50;;;2.53;83.14
70544;BME280;58097;48.364;-1.224;2022-12-04T02:52:59;99181.91;;;2.54;83.10
70544;BME280;58097;48.364;-1.224;2022-12-04T02:55:39;99188.38;;;2.53;83.06
70544;BME280;58097;48.364;-1.224;2022-12-04T02:58:11;99187.03;;;2.47;83.02
70544;BME280;58097;48.364;-1.224;2022-12-04T03:00:40;99185.06;;;2.38;83.15
70544;BME280;58097;48.364;-1.224;2022-12-04T03:03:10;99186.19;;;2.36;83.19
70544;BME280;58097;48.364;-1.224;2022-12-04T03:05:42;99185.22;;;2.37;83.25
70544;BME280;58097;48.364;-1.224;2022-12-04T03:08:15;99175.28;;;2.36;83.66
70544;BME280;58097;48.364;-1.224;2022-12-04T03:10:53;99167.00;;;2.37;83.13
70544;BME280;58097;48.364;-1.224;2022-12-04T03:13:23;99160.19;;;2.32;83.28
70544;BME280;58097;48.364;-1.224;2022-12-04T03:16:13;99168.72;;;2.27;83.54
70544;BME280;58097;48.364;-1.224;2022-12-04T03:18:42;99159.94;;;2.24;83.33
70544;BME280;58097;48.364;-1.224;2022-12-04T03:21:17;99156.22;;;2.25;83.56
70544;BME280;58097;48.364;-1.224;2022-12-04T03:23:51;99160.81;;;2.24;83.54
70544;BME280;58097;48.364;-1.224;2022-12-04T03:26:31;99153.88;;;2.20;83.73
70544;BME280;58097;48.364;-1.224;2022-12-04T03:29:26;99158.94;;;2.25;83.50
70544;BME280;58097;48.364;-1.224;2022-12-04T03:32:07;99154.72;;;2.32;83.41
70544;BME280;58097;48.364;-1.224;2022-12-04T03:35:09;99148.78;;;2.27;83.77
70544;BME280;58097;48.364;-1.224;2022-12-04T03:40:24;99147.03;;;2.26;83.92
70544;BME280;58097;48.364;-1.224;2022-12-04T03:43:01;99143.84;;;2.32;83.97
70544;BME280;58097;48.364;-1.224;2022-12-04T03:45:34;99148.28;;;2.33;83.92
70544;BME280;58097;48.364;-1.224;2022-12-04T03:48:06;99136.53;;;2.32;84.13
70544;BME280;58097;48.364;-1.224;2022-12-04T03:50:41;99142.72;;;2.34;83.96
70544;BME280;58097;48.364;-1.224;2022-12-04T03:53:13;99149.03;;;2.35;83.91
70544;BME280;58097;48.364;-1.224;2022-12-04T03:55:46;99145.31;;;2.36;83.95
70544;BME280;58097;48.364;-1.224;2022-12-04T03:58:18;99143.06;;;2.41;83.91
70544;BME280;58097;48.364;-1.224;2022-12-04T04:00:48;99142.41;;;2.48;83.63
70544;BME280;58097;48.364;-1.224;2022-12-04T04:03:25;99144.00;;;2.51;83.64
70544;BME280;58097;48.364;-1.224;2022-12-04T04:05:57;99149.72;;;2.48;83.66
70544;BME280;58097;48.364;-1.224;2022-12-04T04:08:28;99133.97;;;2.52;83.52
70544;BME280;58097;48.364;-1.224;2022-12-04T04:11:18;99140.06;;;2.44;83.17
70544;BME280;58097;48.364;-1.224;2022-12-04T04:13:59;99145.66;;;2.42;83.57
70544;BME280;58097;48.364;-1.224;2022-12-04T04:16:52;99139.47;;;2.40;83.29
70544;BME280;58097;48.364;-1.224;2022-12-04T04:19:41;99145.56;;;2.22;83.57
70544;BME280;58097;48.364;-1.224;2022-12-04T04:22:27;99136.53;;;2.32;83.38
70544;BME280;58097;48.364;-1.224;2022-12-04T04:25:17;99135.75;;;2.30;83.33
70544;BME280;58097;48.364;-1.224;2022-12-04T04:27:55;99140.59;;;2.38;83.19
70544;BME280;58097;48.364;-1.224;2022-12-04T04:30:21;99138.59;;;2.40;83.18
70544;BME280;58097;48.364;-1.224;2022-12-04T04:33:09;99140.06;;;2.44;83.14
70544;BME280;58097;48.364;-1.224;2022-12-04T04:35:50;99139.31;;;2.42;83.21
70544;BME280;58097;48.364;-1.224;2022-12-04T04:38:50;99143.06;;;2.41;83.31
70544;BME280;58097;48.364;-1.224;2022-12-04T04:46:41;99148.03;;;2.36;83.50
70544;BME280;58097;48.364;-1.224;2022-12-04T04:49:09;99143.31;;;2.38;83.44
70544;BME280;58097;48.364;-1.224;2022-12-04T04:51:36;99148.50;;;2.41;83.43
70544;BME280;58097;48.364;-1.224;2022-12-04T04:54:06;99154.09;;;2.39;83.66
70544;BME280;58097;48.364;-1.224;2022-12-04T04:56:42;99149.38;;;2.41;83.77
70544;BME280;58097;48.364;-1.224;2022-12-04T04:59:08;99156.69;;;2.41;83.48
70544;BME280;58097;48.364;-1.224;2022-12-04T05:01:35;99161.41;;;2.39;83.88
70544;BME280;58097;48.364;-1.224;2022-12-04T05:04:02;99143.44;;;2.36;83.58
70544;BME280;58097;48.364;-1.224;2022-12-04T05:06:28;99147.28;;;2.34;83.84
70544;BME280;58097;48.364;-1.224;2022-12-04T05:08:53;99147.78;;;2.39;83.58
70544;BME280;58097;48.364;-1.224;2022-12-04T05:11:19;99146.03;;;2.38;83.45
70544;BME280;58097;48.364;-1.224;2022-12-04T05:13:44;99144.56;;;2.34;83.37
70544;BME280;58097;48.364;-1.224;2022-12-04T05:16:12;99149.38;;;2.30;83.73
70544;BME280;58097;48.364;-1.224;2022-12-04T05:18:37;99147.53;;;2.31;83.67
70544;BME280;58097;48.364;-1.224;2022-12-04T05:21:07;99142.84;;;2.33;83.45
70544;BME280;58097;48.364;-1.224;2022-12-04T05:23:33;99142.59;;;2.25;83.69
70544;BME280;58097;48.364;-1.224;2022-12-04T05:26:00;99139.72;;;2.26;83.88
70544;BME280;58097;48.364;-1.224;2022-12-04T05:28:25;99141.09;;;2.32;83.65
70544;BME280;58097;48.364;-1.224;2022-12-04T05:30:55;99147.03;;;2.37;83.72
70544;BME280;58097;48.364;-1.224;2022-12-04T05:33:21;99143.19;;;2.39;83.60
70544;BME280;58097;48.364;-1.224;2022-12-04T05:35:58;99139.72;;;2.37;83.78
70544;BME280;58097;48.364;-1.224;2022-12-04T05:38:23;99150.03;;;2.34;83.76
70544;BME280;58097;48.364;-1.224;2022-12-04T05:40:48;99146.16;;;2.36;83.42
70544;BME280;58097;48.364;-1.224;2022-12-04T05:43:14;99142.72;;;2.34;83.72
70544;BME280;58097;48.364;-1.224;2022-12-04T05:45:39;99150.03;;;2.34;83.85
70544;BME280;58097;48.364;-1.224;2022-12-04T05:48:05;99148.38;;;2.31;84.06
70544;BME280;58097;48.364;-1.224;2022-12-04T05:50:30;99141.34;;;2.29;84.04
70544;BME280;58097;48.364;-1.224;2022-12-04T05:52:55;99140.84;;;2.35;83.87
70544;BME280;58097;48.364;-1.224;2022-12-04T05:55:21;99152.75;;;2.34;84.05
70544;BME280;58097;48.364;-1.224;2022-12-04T05:57:46;99151.75;;;2.35;83.88
70544;BME280;58097;48.364;-1.224;2022-12-04T06:00:12;99152.00;;;2.32;83.74
70544;BME280;58097;48.364;-1.224;2022-12-04T06:02:37;99149.53;;;2.17;84.37
70544;BME280;58097;48.364;-1.224;2022-12-04T06:05:03;99149.78;;;2.26;84.26
70544;BME280;58097;48.364;-1.224;2022-12-04T06:07:28;99152.63;;;2.24;84.26
70544;BME280;58097;48.364;-1.224;2022-12-04T06:09:54;99152.09;;;2.30;84.03
70544;BME280;58097;48.364;-1.224;2022-12-04T06:12:19;99150.50;;;2.28;84.35
70544;BME280;58097;48.364;-1.224;2022-12-04T06:14:44;99150.75;;;2.25;84.38
70544;BME280;58097;48.364;-1.224;2022-12-04T06:17:10;99152.75;;;2.23;84.39
70544;BME280;58097;48.364;-1.224;2022-12-04T06:19:35;99163.41;;;2.26;84.43
70544;BME280;58097;48.364;-1.224;2022-12-04T06:22:01;99154.75;;;2.21;84.63
70544;BME280;58097;48.364;-1.224;2022-12-04T06:24:26;99158.47;;;2.20;84.67
70544;BME280;58097;48.364;-1.224;2022-12-04T06:26:55;99163.31;;;2.16;84.79
70544;BME280;58097;48.364;-1.224;2022-12-04T06:29:21;99160.44;;;2.17;84.84
70544;BME280;58097;48.364;-1.224;2022-12-04T06:31:46;99159.72;;;2.15;84.75
70544;BME280;58097;48.364;-1.224;2022-12-04T06:34:12;99165.28;;;2.14;85.09
70544;BME280;58097;48.364;-1.224;2022-12-04T06:36:37;99163.56;;;2.13;84.95
70544;BME280;58097;48.364;-1.224;2022-12-04T06:39:03;99165.16;;;2.15;84.83
70544;BME280;58097;48.364;-1.224;2022-12-04T06:41:29;99160.56;;;2.16;85.02
70544;BME280;58097;48.364;-1.224;2022-12-04T06:43:55;99161.78;;;2.23;84.63
70544;BME280;58097;48.364;-1.224;2022-12-04T06:46:26;99158.81;;;2.26;84.40
70544;BME280;58097;48.364;-1.224;2022-12-04T06:48:53;99167.13;;;2.25;84.66
70544;BME280;58097;48.364;-1.224;2022-12-04T06:51:25;99168.72;;;2.27;84.34
70544;BME280;58097;48.364;-1.224;2022-12-04T06:53:51;99179.00;;;2.35;84.59
70544;BME280;58097;48.364;-1.224;2022-12-04T06:56:19;99176.41;;;2.33;84.63
70544;BME280;58097;48.364;-1.224;2022-12-04T06:58:50;99183.94;;;2.41;84.52
70544;BME280;58097;48.364;-1.224;2022-12-04T07:01:18;99183.81;;;2.42;84.30
70544;BME280;58097;48.364;-1.224;2022-12-04T07:03:45;99189.16;;;2.44;84.48
70544;BME280;58097;48.364;-1.224;2022-12-04T07:06:15;99190.66;;;2.37;84.28
70544;BME280;58097;48.364;-1.224;2022-12-04T07:08:42;99193.00;;;2.30;84.53
70544;BME280;58097;48.364;-1.224;2022-12-04T07:11:08;99190.66;;;2.37;84.37
70544;BME280;58097;48.364;-1.224;2022-12-04T07:13:33;99183.22;;;2.39;84.56
70544;BME280;58097;48.364;-1.224;2022-12-04T07:16:03;99185.94;;;2.39;84.64
70544;BME280;58097;48.364;-1.224;2022-12-04T07:18:30;99189.78;;;2.36;84.58
70544;BME280;58097;48.364;-1.224;2022-12-04T07:20:56;99185.34;;;2.35;84.53
70544;BME280;58097;48.364;-1.224;2022-12-04T07:23:21;99186.81;;;2.39;84.42
70544;BME280;58097;48.364;-1.224;2022-12-04T07:25:47;99189.88;;;2.46;84.42
70544;BME280;58097;48.364;-1.224;2022-12-04T07:28:12;99191.13;;;2.42;84.26
70544;BME280;58097;48.364;-1.224;2022-12-04T07:30:38;99192.47;;;2.47;84.17
70544;BME280;58097;48.364;-1.224;2022-12-04T07:33:04;99193.47;;;2.46;84.31
70544;BME280;58097;48.364;-1.224;2022-12-04T07:35:29;99189.50;;;2.51;84.07
70544;BME280;58097;48.364;-1.224;2022-12-04T07:37:54;99193.81;;;2.53;84.00
70544;BME280;58097;48.364;-1.224;2022-12-04T07:40:20;99196.22;;;2.46;83.84
70544;BME280;58097;48.364;-1.224;2022-12-04T07:42:45;99197.69;;;2.51;84.05
70544;BME280;58097;48.364;-1.224;2022-12-04T07:45:10;99203.00;;;2.52;84.04
70544;BME280;58097;48.364;-1.224;2022-12-04T07:47:36;99201.00;;;2.54;84.07
70544;BME280;58097;48.364;-1.224;2022-12-04T07:50:03;99201.28;;;2.51;83.98
70544;BME280;58097;48.364;-1.224;2022-12-04T07:52:28;99198.53;;;2.51;84.09
70544;BME280;58097;48.364;-1.224;2022-12-04T07:54:54;99204.25;;;2.48;84.35
70544;BME280;58097;48.364;-1.224;2022-12-04T07:57:19;99209.72;;;2.48;84.41
70544;BME280;58097;48.364;-1.224;2022-12-04T07:59:44;99211.19;;;2.52;84.29
70544;BME280;58097;48.364;-1.224;2022-12-04T08:02:11;99206.22;;;2.57;84.21
70544;BME280;58097;48.364;-1.224;2022-12-04T08:04:37;99202.13;;;2.52;84.40
70544;BME280;58097;48.364;-1.224;2022-12-04T08:07:02;99199.28;;;2.53;84.37
70544;BME280;58097;48.364;-1.224;2022-12-04T08:09:28;99204.13;;;2.61;84.10
70544;BME280;58097;48.364;-1.224;2022-12-04T08:11:53;99205.34;;;2.57;84.25
70544;BME280;58097;48.364;-1.224;2022-12-04T08:14:18;99210.19;;;2.64;84.26
70544;BME280;58097;48.364;-1.224;2022-12-04T08:16:44;99213.50;;;2.68;84.01
70544;BME280;58097;48.364;-1.224;2022-12-04T08:19:09;99210.66;;;2.69;84.12
70544;BME280;58097;48.364;-1.224;2022-12-04T08:21:34;99211.66;;;2.68;84.20
70544;BME280;58097;48.364;-1.224;2022-12-04T08:24:00;99206.19;;;2.68;84.12
70544;BME280;58097;48.364;-1.224;2022-12-04T08:26:27;99211.41;;;2.71;84.19
70544;BME280;58097;48.364;-1.224;2022-12-04T08:28:54;99211.66;;;2.57;84.15
70544;BME280;58097;48.364;-1.224;2022-12-04T08:31:23;99210.19;;;2.53;84.45
70544;BME280;58097;48.364;-1.224;2022-12-04T08:33:50;99208.94;;;2.57;84.43
70544;BME280;58097;48.364;-1.224;2022-12-04T08:36:17;99204.22;;;2.59;84.35
70544;BME280;58097;48.364;-1.224;2022-12-04T08:38:43;99217.97;;;2.58;84.15
70544;BME280;58097;48.364;-1.224;2022-12-04T08:41:11;99210.66;;;2.58;84.26
70544;BME280;58097;48.364;-1.224;2022-12-04T08:43:37;99213.78;;;2.65;84.14
70544;BME280;58097;48.364;-1.224;2022-12-04T08:46:05;99212.53;;;2.69;84.18
70544;BME280;58097;48.364;-1.224;2022-12-04T08:48:32;99211.41;;;2.71;84.24
70544;BME280;58097;48.364;-1.224;2022-12-04T08:50:58;99215.25;;;2.69;84.08
70544;BME280;58097;48.364;-1.224;2022-12-04T08:53:24;99218.72;;;2.71;84.17
70544;BME280;58097;48.364;-1.224;2022-12-04T08:55:50;99223.19;;;2.72;83.97
70544;BME280;58097;48.364;-1.224;2022-12-04T08:58:16;99225.03;;;2.71;84.17
70544;BME280;58097;48.364;-1.224;2022-12-04T09:00:42;99221.06;;;2.75;84.08
70544;BME280;58097;48.364;-1.224;2022-12-04T09:03:12;99215.34;;;2.78;83.99
70544;BME280;58097;48.364;-1.224;2022-12-04T09:05:37;99212.06;;;2.85;83.97
70544;BME280;58097;48.364;-1.224;2022-12-04T09:08:03;99219.78;;;2.91;83.75
70544;BME280;58097;48.364;-1.224;2022-12-04T09:10:28;99222.25;;;2.94;83.44
70544;BME280;58097;48.364;-1.224;2022-12-04T09:12:54;99224.38;;;2.90;83.65
70544;BME280;58097;48.364;-1.224;2022-12-04T09:15:19;99228.69;;;2.93;83.81
70544;BME280;58097;48.364;-1.224;2022-12-04T09:17:44;99235.16;;;2.92;83.57
70544;BME280;58097;48.364;-1.224;2022-12-04T09:20:10;99235.16;;;2.92;83.64
70544;BME280;58097;48.364;-1.224;2022-12-04T09:22:36;99229.69;;;2.92;83.68
70544;BME280;58097;48.364;-1.224;2022-12-04T09:25:03;99228.81;;;2.91;83.51
70544;BME280;58097;48.364;-1.224;2022-12-04T09:27:30;99227.97;;;2.91;83.52
70544;BME280;58097;48.364;-1.224;2022-12-04T09:29:59;99228.09;;;2.89;83.32
70544;BME280;58097;48.364;-1.224;2022-12-04T09:32:24;99228.31;;;2.86;83.61
70544;BME280;58097;48.364;-1.224;2022-12-04T09:34:50;99227.13;;;2.79;84.03
70544;BME280;58097;48.364;-1.224;2022-12-04T09:37:15;99222.91;;;2.75;84.17
70544;BME280;58097;48.364;-1.224;2022-12-04T09:39:42;99220.78;;;2.78;84.25
70544;BME280;58097;48.364;-1.224;2022-12-04T09:42:29;99220.25;;;2.85;84.27
70544;BME280;58097;48.364;-1.224;2022-12-04T09:45:02;99225.97;;;2.93;84.87
70544;BME280;58097;48.364;-1.224;2022-12-04T09:50:41;99232.25;;;3.04;84.77
70544;BME280;58097;48.364;-1.224;2022-12-04T09:53:19;99238.16;;;3.09;84.41
70544;BME280;58097;48.364;-1.224;2022-12-04T09:58:39;99230.84;;;3.10;84.81
70544;BME280;58097;48.364;-1.224;2022-12-04T10:01:17;99226.84;;;3.14;84.69
70544;BME280;58097;48.364;-1.224;2022-12-04T10:03:45;99231.06;;;3.18;84.73
70544;BME280;58097;48.364;-1.224;2022-12-04T10:06:18;99232.53;;;3.22;84.74
70544;BME280;58097;48.364;-1.224;2022-12-04T10:09:02;99239.47;;;3.26;84.50
70544;BME280;58097;48.364;-1.224;2022-12-04T10:17:36;99237.94;;;3.33;84.53
70544;BME280;58097;48.364;-1.224;2022-12-04T10:23:06;99231.41;;;3.46;84.06
70544;BME280;58097;48.364;-1.224;2022-12-04T10:25:37;99231.16;;;3.49;83.96
70544;BME280;58097;48.364;-1.224;2022-12-04T10:28:33;99236.75;;;3.47;84.01
70544;BME280;58097;48.364;-1.224;2022-12-04T10:31:02;99232.59;;;3.32;83.57
70544;BME280;58097;48.364;-1.224;2022-12-04T10:33:34;99246.53;;;3.29;83.22
70544;BME280;58097;48.364;-1.224;2022-12-04T10:36:01;99243.94;;;3.27;83.43
70544;BME280;58097;48.364;-1.224;2022-12-04T10:43:47;99247.13;;;3.32;83.22
70544;BME280;58097;48.364;-1.224;2022-12-04T10:46:15;99248.72;;;3.35;83.47
70544;BME280;58097;48.364;-1.224;2022-12-04T10:48:45;99242.66;;;3.31;83.74
70544;BME280;58097;48.364;-1.224;2022-12-04T10:51:14;99243.13;;;3.36;83.65
70544;BME280;58097;48.364;-1.224;2022-12-04T10:53:40;99242.72;;;3.41;83.33
70544;BME280;58097;48.364;-1.224;2022-12-04T10:56:19;99242.47;;;3.44;83.38
70544;BME280;58097;48.364;-1.224;2022-12-04T10:59:03;99243.47;;;3.43;82.84
70544;BME280;58097;48.364;-1.224;2022-12-04T11:01:33;99235.75;;;3.48;83.09
70544;BME280;58097;48.364;-1.224;2022-12-04T11:04:08;99235.50;;;3.51;82.97
70544;BME280;58097;48.364;-1.224;2022-12-04T11:06:34;99232.03;;;3.49;82.79
70544;BME280;58097;48.364;-1.224;2022-12-04T11:09:01;99234.50;;;3.52;83.27
70544;BME280;58097;48.364;-1.224;2022-12-04T11:11:32;99231.75;;;3.52;82.92
70544;BME280;58097;48.364;-1.224;2022-12-04T11:14:11;99226.81;;;3.46;82.85
70544;BME280;58097;48.364;-1.224;2022-12-04T11:16:40;99219.38;;;3.48;82.81
70544;BME280;58097;48.364;-1.224;2022-12-04T11:19:20;99219.56;;;3.56;83.30
70544;BME280;58097;48.364;-1.224;2022-12-04T11:21:46;99221.44;;;3.56;83.24
70544;BME280;58097;48.364;-1.224;2022-12-04T11:24:35;99228.22;;;3.61;83.46
70544;BME280;58097;48.364;-1.224;2022-12-04T11:27:03;99225.47;;;3.61;83.44
70544;BME280;58097;48.364;-1.224;2022-12-04T11:29:35;99230.50;;;3.56;83.66
70544;BME280;58097;48.364;-1.224;2022-12-04T11:32:02;99234.09;;;3.57;83.53
70544;BME280;58097;48.364;-1.224;2022-12-04T11:34:34;99230.50;;;3.56;83.73
70544;BME280;58097;48.364;-1.224;2022-12-04T11:37:01;99231.91;;;3.51;83.60
70544;BME280;58097;48.364;-1.224;2022-12-04T11:39:37;99235.13;;;3.45;83.73
70544;BME280;58097;48.364;-1.224;2022-12-04T11:42:15;99234.63;;;3.51;83.81
70544;BME280;58097;48.364;-1.224;2022-12-04T11:44:56;99240.59;;;3.45;83.53
70544;BME280;58097;48.364;-1.224;2022-12-04T11:47:27;99237.50;;;3.49;83.66
70544;BME280;58097;48.364;-1.224;2022-12-04T11:50:21;99242.31;;;3.46;83.94
70544;BME280;58097;48.364;-1.224;2022-12-04T11:58:42;99245.00;;;3.57;84.00
70544;BME280;58097;48.364;-1.224;2022-12-04T12:04:00;99234.75;;;3.49;84.44
70544;BME280;58097;48.364;-1.224;2022-12-04T12:06:39;99224.69;;;3.50;84.43
70544;BME280;58097;48.364;-1.224;2022-12-04T12:12:13;99232.53;;;3.43;84.84
70544;BME280;58097;48.364;-1.224;2022-12-04T12:17:55;99235.28;;;3.43;84.96
70544;BME280;58097;48.364;-1.224;2022-12-04T12:25:56;99228.81;;;3.44;84.57
70544;BME280;58097;48.364;-1.224;2022-12-04T12:34:17;99234.03;;;3.47;84.52
70544;BME280;58097;48.364;-1.224;2022-12-04T12:36:48;99239.22;;;3.50;84.61
70544;BME280;58097;48.364;-1.224;2022-12-04T12:39:34;99230.91;;;3.52;84.63
70544;BME280;58097;48.364;-1.224;2022-12-04T12:42:03;99217.69;;;3.57;84.61
70544;BME280;58097;48.364;-1.224;2022-12-04T12:44:45;99220.28;;;3.58;84.85
70544;BME280;58097;48.364;-1.224;2022-12-04T12:47:16;99218.28;;;3.60;84.68
70544;BME280;58097;48.364;-1.224;2022-12-04T12:49:59;99208.81;;;3.64;84.53
70544;BME280;58097;48.364;-1.224;2022-12-04T12:52:49;99208.41;;;3.69;84.50
70544;BME280;58097;48.364;-1.224;2022-12-04T12:55:26;99215.34;;;3.73;84.86
70544;BME280;58097;48.364;-1.224;2022-12-04T12:57:59;99207.28;;;3.71;84.76
70544;BME280;58097;48.364;-1.224;2022-12-04T13:00:31;99208.00;;;3.73;85.01
70544;BME280;58097;48.364;-1.224;2022-12-04T13:03:17;99213.09;;;3.78;84.87
70544;BME280;58097;48.364;-1.224;2022-12-04T13:05:49;99214.09;;;3.77;85.01
70544;BME280;58097;48.364;-1.224;2022-12-04T13:08:23;99209.72;;;3.74;85.14
70544;BME280;58097;48.364;-1.224;2022-12-04T13:11:13;99204.75;;;3.80;84.98
70544;BME280;58097;48.364;-1.224;2022-12-04T13:14:01;99201.59;;;3.84;85.03
70544;BME280;58097;48.364;-1.224;2022-12-04T13:24:03;99204.06;;;3.87;85.04
70544;BME280;58097;48.364;-1.224;2022-12-04T13:26:55;99200.59;;;3.85;84.90
70544;BME280;58097;48.364;-1.224;2022-12-04T13:29:56;99205.94;;;3.87;85.24
70544;BME280;58097;48.364;-1.224;2022-12-04T13:40:32;99217.88;;;3.86;84.89
70544;BME280;58097;48.364;-1.224;2022-12-04T13:45:46;99220.41;;;3.78;85.04
70544;BME280;58097;48.364;-1.224;2022-12-04T13:48:13;99213.09;;;3.78;84.85
70544;BME280;58097;48.364;-1.224;2022-12-04T13:50:39;99218.16;;;3.83;84.78
70544;BME280;58097;48.364;-1.224;2022-12-04T13:53:05;99215.84;;;3.88;84.76
70544;BME280;58097;48.364;-1.224;2022-12-04T13:55:36;99215.31;;;3.94;84.67
70544;BME280;58097;48.364;-1.224;2022-12-04T13:58:25;99212.72;;;3.92;84.85
70544;BME280;58097;48.364;-1.224;2022-12-04T14:03:29;99219.63;;;3.96;84.73
70544;BME280;58097;48.364;-1.224;2022-12-04T14:05:57;99222.22;;;3.98;84.40
70544;BME280;58097;48.364;-1.224;2022-12-04T14:08:38;99232.03;;;4.00;84.49
70544;BME280;58097;48.364;-1.224;2022-12-04T14:11:05;99227.16;;;4.04;84.44
70544;BME280;58097;48.364;-1.224;2022-12-04T14:16:35;99235.50;;;4.02;84.39
70544;BME280;58097;48.364;-1.224;2022-12-04T14:19:03;99241.56;;;4.06;84.34
70544;BME280;58097;48.364;-1.224;2022-12-04T14:21:39;99241.56;;;4.06;84.30
70544;BME280;58097;48.364;-1.224;2022-12-04T14:24:27;99230.38;;;4.09;84.29
70544;BME280;58097;48.364;-1.224;2022-12-04T14:26:54;99234.09;;;4.08;84.25
70544;BME280;58097;48.364;-1.224;2022-12-04T14:29:32;99231.22;;;4.10;84.34
70544;BME280;58097;48.364;-1.224;2022-12-04T14:32:06;99231.50;;;4.07;84.48
70544;BME280;58097;48.364;-1.224;2022-12-04T14:34:34;99236.69;;;4.10;84.38
70544;BME280;58097;48.364;-1.224;2022-12-04T14:37:00;99226.50;;;4.12;84.29
70544;BME280;58097;48.364;-1.224;2022-12-04T14:39:35;99237.28;;;4.13;84.06
70544;BME280;58097;48.364;-1.224;2022-12-04T14:44:59;99229.38;;;4.10;84.02
70544;BME280;58097;48.364;-1.224;2022-12-04T14:50:43;99232.22;;;4.09;84.00
70544;BME280;58097;48.364;-1.224;2022-12-04T14:58:45;99236.41;;;4.13;84.08
70544;BME280;58097;48.364;-1.224;2022-12-04T15:01:25;99240.88;;;4.14;83.69
70544;BME280;58097;48.364;-1.224;2022-12-04T15:03:53;99238.16;;;4.14;83.75
70544;BME280;58097;48.364;-1.224;2022-12-04T15:06:25;99238.00;;;4.15;84.00
70544;BME280;58097;48.364;-1.224;2022-12-04T15:08:55;99240.47;;;4.18;84.02
70544;BME280;58097;48.364;-1.224;2022-12-04T15:11:45;99250.25;;;4.21;83.75
70544;BME280;58097;48.364;-1.224;2022-12-04T15:14:47;99243.78;;;4.22;83.69